createdAt,value
2023-01-01T00:03:03.545Z,97815.72
2023-01-01T00:08:05.231Z,97815.09
2023-01-01T00:13:06.941Z,97807.28
2023-01-01T00:18:08.273Z,97816.78
2023-01-01T00:23:09.577Z,97812.03
2023-01-01T00:28:10.958Z,97828.59
2023-01-01T00:33:12.323Z,97828.97
2023-01-01T00:38:13.854Z,97837.03
2023-01-01T00:43:15.157Z,97840.78
2023-01-01T00:48:16.484Z,97848.84
2023-01-01T00:53:18.232Z,97850.06
2023-01-01T00:58:19.815Z,97841.78
2023-01-01T01:03:30.524Z,97841.38
2023-01-01T01:08:33.013Z,97854.59
2023-01-01T01:13:34.556Z,97868.88
2023-01-01T01:18:36.415Z,97871.16
2023-01-01T01:23:37.776Z,97879.81
2023-01-01T01:28:43.791Z,97883.72
2023-01-01T01:33:49.228Z,97873.19
2023-01-01T01:38:50.645Z,97871.94
2023-01-01T01:43:57.148Z,97877.72
2023-01-01T01:49:01.341Z,97882.91
2023-01-01T01:54:05.401Z,97897.34
2023-01-01T01:59:06.842Z,97891.78
2023-01-01T02:04:08.291Z,97888.88
2023-01-01T02:09:09.788Z,97879.34
2023-01-01T02:14:11.145Z,97885.59
2023-01-01T02:19:31.429Z,97884.53
2023-01-01T02:24:41.780Z,97882.66
2023-01-01T02:29:49.953Z,97881.22
2023-01-01T02:34:51.246Z,97882.25
2023-01-01T02:39:57.589Z,97878.13
2023-01-01T02:44:59.691Z,97880.16
2023-01-01T02:50:09.952Z,97888.63
2023-01-01T02:55:18.279Z,97881.75
2023-01-01T03:00:24.378Z,97884.66
2023-01-01T03:05:31.334Z,97877.66
2023-01-01T03:10:38.700Z,97873.13
2023-01-01T03:15:49.396Z,97865.88
2023-01-01T03:20:51.737Z,97860.72
2023-01-01T03:25:55.521Z,97872.47
2023-01-01T03:30:57.452Z,97856.59
2023-01-01T03:36:21.417Z,97864.44
2023-01-01T03:41:27.151Z,97857.41
2023-01-01T03:46:30.803Z,97860.28
2023-01-01T03:51:50.697Z,97862.38
2023-01-01T03:56:57.144Z,97858.00
2023-01-01T04:02:02.179Z,97860.69
2023-01-01T04:07:14.548Z,97860.28
2023-01-01T04:12:18.006Z,97866.47
2023-01-01T04:17:19.547Z,97867.28
2023-01-01T04:22:23.137Z,97875.13
2023-01-01T04:27:24.541Z,97870.97
2023-01-01T04:32:25.853Z,97879.66
2023-01-01T04:37:27.169Z,97880.06
2023-01-01T04:42:28.508Z,97877.56
2023-01-01T04:47:30.099Z,97887.88
2023-01-01T04:52:31.402Z,97881.25
2023-01-01T04:57:33.044Z,97874.59
2023-01-01T05:02:34.440Z,97876.31
2023-01-01T05:07:35.924Z,97890.75
2023-01-01T05:12:37.231Z,97893.03
2023-01-01T05:17:38.540Z,97887.88
2023-01-01T05:22:39.868Z,97903.81
2023-01-01T05:27:41.316Z,97895.94
2023-01-01T05:32:42.753Z,97906.66
2023-01-01T05:37:44.155Z,97909.34
2023-01-01T05:42:46.800Z,97913.06
2023-01-01T05:47:48.110Z,97903.97
2023-01-01T05:52:49.521Z,97911.84
2023-01-01T05:57:50.862Z,97906.88
2023-01-01T06:02:52.340Z,97914.72
2023-01-01T06:07:53.706Z,97918.44
2023-01-01T06:12:58.464Z,97920.69
2023-01-01T06:17:59.768Z,97921.91
2023-01-01T06:23:01.078Z,97928.28
2023-01-01T06:28:02.417Z,97938.81
2023-01-01T06:33:04.233Z,97940.16
2023-01-01T06:38:05.614Z,97947.00
2023-01-01T06:43:06.997Z,97937.50
2023-01-01T06:48:08.310Z,97942.03
2023-01-01T06:53:09.667Z,97946.38
2023-01-01T06:58:10.982Z,97956.47
2023-01-01T07:03:12.465Z,97963.66
2023-01-01T07:08:13.880Z,97972.50
2023-01-01T07:13:15.232Z,97980.66
2023-01-01T07:18:18.313Z,97989.09
2023-01-01T07:23:19.750Z,97992.00
2023-01-01T07:28:21.882Z,97999.38
2023-01-01T07:33:24.124Z,98007.59
2023-01-01T07:38:25.446Z,98018.41
2023-01-01T07:43:26.754Z,98015.56
2023-01-01T07:48:28.419Z,98022.00
2023-01-01T07:53:29.739Z,98014.44
2023-01-01T07:58:31.084Z,98047.50
2023-01-01T08:03:32.440Z,98057.81
2023-01-01T08:08:33.815Z,98061.38
2023-01-01T08:13:35.243Z,98070.50
2023-01-01T08:18:36.593Z,98069.72
2023-01-01T08:23:37.930Z,98077.78
2023-01-01T08:28:39.339Z,98077.81
2023-01-01T08:33:40.651Z,98098.69
2023-01-01T08:38:42.369Z,98094.41
2023-01-01T08:43:43.686Z,98098.59
2023-01-01T08:48:45.056Z,98109.59
2023-01-01T08:53:50.906Z,98116.03
2023-01-01T08:58:55.150Z,98118.94
2023-01-01T09:03:58.786Z,98126.84
2023-01-01T09:09:00.094Z,98130.34
2023-01-01T09:14:01.427Z,98136.56
2023-01-01T09:19:02.744Z,98133.25
2023-01-01T09:24:04.377Z,98143.38
2023-01-01T09:29:05.728Z,98159.53
2023-01-01T09:34:07.038Z,98149.84
2023-01-01T09:39:10.667Z,98138.06
2023-01-01T09:44:21.960Z,98134.56
2023-01-01T09:49:31.787Z,98115.75
2023-01-01T09:54:51.933Z,98103.97
2023-01-01T09:59:53.456Z,98109.19
2023-01-01T10:04:57.629Z,98110.69
2023-01-01T10:10:17.755Z,98119.22
2023-01-01T10:15:23.911Z,98127.44
2023-01-01T10:20:36.231Z,98125.81
2023-01-01T10:25:39.731Z,98118.78
2023-01-01T10:30:41.498Z,98129.16
2023-01-01T10:35:48.694Z,98150.84
2023-01-01T10:40:51.831Z,98152.16
2023-01-01T10:45:54.532Z,98125.03
2023-01-01T10:50:55.887Z,98119.91
2023-01-01T10:55:59.520Z,98130.47
2023-01-01T11:01:02.114Z,98130.88
2023-01-01T11:06:03.485Z,98131.28
2023-01-01T11:11:04.999Z,98134.16
2023-01-01T11:16:10.464Z,98133.34
2023-01-01T11:21:19.032Z,98135.81
2023-01-01T11:26:24.469Z,98134.38
2023-01-01T11:31:28.754Z,98131.69
2023-01-01T11:36:32.800Z,98120.09
2023-01-01T11:41:41.298Z,98113.03
2023-01-01T11:46:45.941Z,98110.97
2023-01-01T11:51:47.257Z,98110.97
2023-01-01T11:56:51.934Z,98115.09
2023-01-01T12:02:02.434Z,98124.22
2023-01-01T12:07:03.751Z,98114.66
2023-01-01T12:12:05.542Z,98122.75
2023-01-01T12:17:16.493Z,98120.25
2023-01-01T12:22:18.751Z,98124.56
2023-01-01T12:27:38.896Z,98122.91
2023-01-01T12:32:49.924Z,98120.22
2023-01-01T12:37:54.224Z,98118.16
2023-01-01T12:43:12.259Z,98124.81
2023-01-01T12:48:27.869Z,98124.22
2023-01-01T12:53:29.165Z,98112.41
2023-01-01T12:58:39.787Z,98113.88
2023-01-01T13:03:49.249Z,98099.38
2023-01-01T13:08:52.229Z,98095.66
2023-01-01T13:13:53.945Z,98095.03
2023-01-01T13:19:00.732Z,98094.84
2023-01-01T13:24:05.625Z,98091.94
2023-01-01T13:29:12.738Z,98112.03
2023-01-01T13:34:31.738Z,98112.22
2023-01-01T13:39:53.010Z,98117.19
2023-01-01T13:44:54.461Z,98123.84
2023-01-01T13:50:18.602Z,98127.53
2023-01-01T13:55:23.011Z,98124.25
2023-01-01T14:00:39.886Z,98124.66
2023-01-01T14:05:44.027Z,98146.16
2023-01-01T14:10:49.821Z,98150.84
2023-01-01T14:15:53.318Z,98164.69
2023-01-01T14:20:54.805Z,98168.16
2023-01-01T14:25:56.548Z,98173.69
2023-01-01T14:31:02.169Z,98168.69
2023-01-01T14:36:17.388Z,98183.16
2023-01-01T14:41:29.259Z,98194.22
2023-01-01T14:46:30.898Z,98208.78
2023-01-01T14:51:32.742Z,98218.03
2023-01-01T14:56:35.709Z,98226.00
2023-01-01T15:01:37.207Z,98219.59
2023-01-01T15:06:41.974Z,98226.34
2023-01-01T15:11:44.606Z,98226.28
2023-01-01T15:16:59.085Z,98228.25
2023-01-01T15:22:01.021Z,98236.47
2023-01-01T15:27:03.971Z,98226.75
2023-01-01T15:32:09.355Z,98233.78
2023-01-01T15:37:10.710Z,98237.25
2023-01-01T15:42:30.744Z,98240.69
2023-01-01T15:47:37.623Z,98235.31
2023-01-01T15:52:42.422Z,98238.88
2023-01-01T15:57:48.980Z,98231.50
2023-01-01T16:02:52.828Z,98229.25
2023-01-01T16:08:04.476Z,98226.34
2023-01-01T16:13:05.785Z,98225.91
2023-01-01T16:18:07.302Z,98230.56
2023-01-01T16:23:11.601Z,98216.66
2023-01-01T16:28:13.979Z,98212.84
2023-01-01T16:33:19.232Z,98221.22
2023-01-01T16:38:20.570Z,98221.41
2023-01-01T16:43:21.952Z,98224.25
2023-01-01T16:48:23.386Z,98228.97
2023-01-01T16:53:24.690Z,98231.22
2023-01-01T17:03:47.359Z,98241.09
2023-01-01T17:08:48.690Z,98244.44
2023-01-01T17:13:50.287Z,98248.59
2023-01-01T17:24:14.159Z,98234.28
2023-01-01T17:29:15.578Z,98237.69
2023-01-01T17:34:16.973Z,98224.53
2023-01-01T17:39:18.313Z,98231.72
2023-01-01T17:44:19.714Z,98228.22
2023-01-01T17:49:21.045Z,98209.06
2023-01-01T17:54:22.448Z,98228.66
2023-01-01T17:59:24.348Z,98215.78
2023-01-01T18:04:25.752Z,98224.59
2023-01-01T18:09:27.078Z,98213.59
2023-01-01T18:14:28.389Z,98213.09
2023-01-01T18:19:30.576Z,98217.38
2023-01-01T18:24:31.905Z,98222.34
2023-01-01T18:29:33.473Z,98218.72
2023-01-01T18:34:34.806Z,98212.84
2023-01-01T18:39:41.492Z,98220.78
2023-01-01T18:44:43.428Z,98226.75
2023-01-01T18:49:49.357Z,98221.66
2023-01-01T18:54:51.957Z,98229.97
2023-01-01T18:59:54.617Z,98231.66
2023-01-01T19:04:57.636Z,98240.81
2023-01-01T19:09:59.341Z,98240.41
2023-01-01T19:15:13.540Z,98236.69
2023-01-01T19:20:17.219Z,98228.09
2023-01-01T19:25:38.906Z,98246.66
2023-01-01T19:30:40.246Z,98234.53
2023-01-01T19:35:41.571Z,98235.78
2023-01-01T19:40:42.901Z,98226.91
2023-01-01T19:45:44.236Z,98222.56
2023-01-01T19:50:46.460Z,98232.28
2023-01-01T19:55:47.884Z,98220.38
2023-01-01T20:00:49.742Z,98212.94
2023-01-01T20:05:51.154Z,98210.50
2023-01-01T20:10:52.851Z,98201.84
2023-01-01T20:15:54.323Z,98213.66
2023-01-01T20:21:14.498Z,98200.06
2023-01-01T20:26:15.856Z,98201.94
2023-01-01T20:31:17.245Z,98202.09
2023-01-01T20:36:37.333Z,98199.81
2023-01-01T20:41:38.710Z,98185.75
2023-01-01T20:46:41.110Z,98196.31
2023-01-01T20:51:43.109Z,98195.47
2023-01-01T20:56:44.533Z,98189.28
2023-01-01T21:01:46.407Z,98181.41
2023-01-01T21:06:47.874Z,98172.94
2023-01-01T21:11:49.782Z,98174.97
2023-01-01T21:16:51.812Z,98163.03
2023-01-01T21:21:54.951Z,98160.16
2023-01-01T21:27:01.896Z,98153.09
2023-01-01T21:32:23.576Z,98146.09
2023-01-01T21:37:50.707Z,98147.75
2023-01-01T21:43:03.021Z,98132.84
2023-01-01T21:48:16.628Z,98128.28
2023-01-01T21:53:20.302Z,98128.19
2023-01-01T21:58:44.835Z,98125.88
2023-01-01T22:03:48.683Z,98115.72
2023-01-01T22:08:50.166Z,98112.41
2023-01-01T22:13:51.640Z,98112.66
2023-01-01T22:18:55.539Z,98108.13
2023-01-01T22:23:59.425Z,98101.94
2023-01-01T22:29:03.172Z,98103.19
2023-01-01T22:34:15.764Z,98093.31
2023-01-01T22:39:34.915Z,98092.38
2023-01-01T22:44:36.885Z,98081.69
2023-01-01T22:49:39.862Z,98084.59
2023-01-01T22:54:41.420Z,98080.66
2023-01-01T22:59:43.076Z,98073.91
2023-01-01T23:04:46.471Z,98063.75
2023-01-01T23:09:55.213Z,98052.84
2023-01-01T23:15:18.267Z,98051.81
2023-01-01T23:20:26.327Z,98038.38
2023-01-01T23:25:28.760Z,98029.94
2023-01-01T23:30:30.380Z,98014.47
2023-01-01T23:35:34.224Z,98020.44
2023-01-01T23:40:35.646Z,98019.84
2023-01-01T23:45:40.011Z,98022.13
2023-01-01T23:50:45.286Z,98026.69
2023-01-01T23:55:51.821Z,98023.59
